sensor_id;sensor_type;location;lat;lon;timestamp;pressure;altitude;pressure_sealevel;temperature;humidity
12949;BME280;6539;49.476;8.484;2023-07-24T00:01:52;99680.75;;;22.62;51.18
12949;BME280;6539;49.476;8.484;2023-07-24T00:04:41;99692.47;;;22.61;51.44
12949;BME280;6539;49.476;8.484;2023-07-24T00:07:27;99683.00;;;22.58;51.37
12949;BME280;6539;49.476;8.484;2023-07-24T00:10:13;99678.44;;;22.55;51.35
12949;BME280;6539;49.476;8.484;2023-07-24T00:12:59;99679.94;;;22.56;51.36
12949;BME280;6539;49.476;8.484;2023-07-24T00:15:45;99678.94;;;22.54;51.56
12949;BME280;6539;49.476;8.484;2023-07-24T00:18:31;99679.69;;;22.54;51.67
12949;BME280;6539;49.476;8.484;2023-07-24T00:21:17;99685.03;;;22.52;51.87
12949;BME280;6539;49.476;8.484;2023-07-24T00:24:03;99681.97;;;22.50;52.07
12949;BME280;6539;49.476;8.484;2023-07-24T00:26:49;99669.25;;;22.44;52.27
12949;BME280;6539;49.476;8.484;2023-07-24T00:29:35;99672.56;;;22.42;52.50
12949;BME280;6539;49.476;8.484;2023-07-24T00:32:26;99663.09;;;22.34;52.92
12949;BME280;6539;49.476;8.484;2023-07-24T00:35:12;99669.94;;;22.28;53.40
12949;BME280;6539;49.476;8.484;2023-07-24T00:37:58;99672.00;;;22.27;53.55
12949;BME280;6539;49.476;8.484;2023-07-24T00:40:44;99659.50;;;22.23;53.66
12949;BME280;6539;49.476;8.484;2023-07-24T00:43:33;99662.78;;;22.16;53.75
12949;BME280;6539;49.476;8.484;2023-07-24T00:46:19;99651.09;;;22.17;53.72
12949;BME280;6539;49.476;8.484;2023-07-24T00:49:05;99655.16;;;22.16;53.81
12949;BME280;6539;49.476;8.484;2023-07-24T00:51:52;99646.78;;;22.16;54.12
12949;BME280;6539;49.476;8.484;2023-07-24T00:54:38;99643.72;;;22.20;54.24
12949;BME280;6539;49.476;8.484;2023-07-24T00:57:25;99640.47;;;22.27;53.80
12949;BME280;6539;49.476;8.484;2023-07-24T01:00:11;99638.41;;;22.22;53.45
12949;BME280;6539;49.476;8.484;2023-07-24T01:02:59;99640.72;;;22.23;53.27
12949;BME280;6539;49.476;8.484;2023-07-24T01:05:45;99639.47;;;22.30;52.68
12949;BME280;6539;49.476;8.484;2023-07-24T01:08:31;99636.38;;;22.28;52.69
12949;BME280;6539;49.476;8.484;2023-07-24T01:11:29;99631.56;;;22.28;51.88
12949;BME280;6539;49.476;8.484;2023-07-24T01:17:31;99624.41;;;22.16;51.32
12949;BME280;6539;49.476;8.484;2023-07-24T01:20:21;99631.00;;;22.08;51.65
12949;BME280;6539;49.476;8.484;2023-07-24T01:26:10;99622.00;;;21.87;52.10
12949;BME280;6539;49.476;8.484;2023-07-24T01:28:56;99613.56;;;21.81;52.30
12949;BME280;6539;49.476;8.484;2023-07-24T01:31:43;99612.09;;;21.86;52.39
12949;BME280;6539;49.476;8.484;2023-07-24T01:34:31;99617.94;;;21.88;52.26
12949;BME280;6539;49.476;8.484;2023-07-24T01:37:20;99618.94;;;21.85;52.46
12949;BME280;6539;49.476;8.484;2023-07-24T01:40:10;99620.66;;;21.77;52.81
12949;BME280;6539;49.476;8.484;2023-07-24T01:42:56;99619.59;;;21.69;53.08
12949;BME280;6539;49.476;8.484;2023-07-24T01:45:45;99610.44;;;21.63;53.36
12949;BME280;6539;49.476;8.484;2023-07-24T01:48:32;99615.25;;;21.68;53.64
12949;BME280;6539;49.476;8.484;2023-07-24T01:51:18;99595.53;;;21.82;53.40
12949;BME280;6539;49.476;8.484;2023-07-24T01:54:06;99583.41;;;21.91;53.04
12949;BME280;6539;49.476;8.484;2023-07-24T01:56:52;99588.72;;;21.89;53.34
12949;BME280;6539;49.476;8.484;2023-07-24T01:59:38;99593.06;;;21.90;53.21
12949;BME280;6539;49.476;8.484;2023-07-24T02:02:27;99585.41;;;21.85;53.18
12949;BME280;6539;49.476;8.484;2023-07-24T02:05:15;99574.94;;;21.80;53.70
12949;BME280;6539;49.476;8.484;2023-07-24T02:08:01;99575.94;;;21.77;53.90
12949;BME280;6539;49.476;8.484;2023-07-24T02:10:50;99570.59;;;21.73;54.30
12949;BME280;6539;49.476;8.484;2023-07-24T02:13:36;99570.81;;;21.70;54.56
12949;BME280;6539;49.476;8.484;2023-07-24T02:16:22;99570.31;;;21.66;54.93
12949;BME280;6539;49.476;8.484;2023-07-24T02:19:08;99575.84;;;21.55;55.43
12949;BME280;6539;49.476;8.484;2023-07-24T02:21:57;99570.47;;;21.46;56.17
12949;BME280;6539;49.476;8.484;2023-07-24T02:24:43;99569.91;;;21.36;56.76
12949;BME280;6539;49.476;8.484;2023-07-24T02:27:31;99570.88;;;21.33;57.81
12949;BME280;6539;49.476;8.484;2023-07-24T02:30:20;99581.25;;;21.27;58.58
12949;BME280;6539;49.476;8.484;2023-07-24T02:33:06;99564.50;;;21.21;59.23
12949;BME280;6539;49.476;8.484;2023-07-24T02:35:52;99560.63;;;21.13;59.73
12949;BME280;6539;49.476;8.484;2023-07-24T02:38:38;99570.25;;;21.12;59.86
12949;BME280;6539;49.476;8.484;2023-07-24T02:41:24;99576.34;;;21.11;60.08
12949;BME280;6539;49.476;8.484;2023-07-24T02:44:13;99565.94;;;21.11;60.14
12949;BME280;6539;49.476;8.484;2023-07-24T02:47:01;99564.16;;;21.14;60.32
12949;BME280;6539;49.476;8.484;2023-07-24T02:49:47;99559.63;;;21.16;60.54
12949;BME280;6539;49.476;8.484;2023-07-24T02:52:33;99555.81;;;21.14;60.83
12949;BME280;6539;49.476;8.484;2023-07-24T02:55:20;99554.75;;;21.11;60.79
12949;BME280;6539;49.476;8.484;2023-07-24T02:58:12;99553.78;;;21.14;60.76
12949;BME280;6539;49.476;8.484;2023-07-24T03:01:06;99556.84;;;21.16;61.14
12949;BME280;6539;49.476;8.484;2023-07-24T03:03:54;99552.03;;;21.17;61.64
12949;BME280;6539;49.476;8.484;2023-07-24T03:06:40;99547.47;;;21.19;62.05
12949;BME280;6539;49.476;8.484;2023-07-24T03:09:29;99542.09;;;21.16;62.66
12949;BME280;6539;49.476;8.484;2023-07-24T03:12:19;99539.56;;;21.12;62.81
12949;BME280;6539;49.476;8.484;2023-07-24T03:15:09;99530.91;;;21.10;63.11
12949;BME280;6539;49.476;8.484;2023-07-24T03:17:55;99520.75;;;21.07;63.15
12949;BME280;6539;49.476;8.484;2023-07-24T03:20:48;99524.25;;;21.02;63.44
12949;BME280;6539;49.476;8.484;2023-07-24T03:23:34;99531.38;;;21.03;63.63
12949;BME280;6539;49.476;8.484;2023-07-24T03:26:20;99528.59;;;21.03;63.38
12949;BME280;6539;49.476;8.484;2023-07-24T03:29:08;99532.69;;;21.08;63.38
12949;BME280;6539;49.476;8.484;2023-07-24T03:31:54;99521.50;;;21.08;63.29
12949;BME280;6539;49.476;8.484;2023-07-24T03:34:40;99522.31;;;21.14;62.97
12949;BME280;6539;49.476;8.484;2023-07-24T03:37:26;99516.25;;;21.15;62.84
12949;BME280;6539;49.476;8.484;2023-07-24T03:40:12;99518.47;;;21.11;62.94
12949;BME280;6539;49.476;8.484;2023-07-24T03:42:59;99519.97;;;21.07;63.12
12949;BME280;6539;49.476;8.484;2023-07-24T03:45:50;99513.91;;;21.08;63.20
12949;BME280;6539;49.476;8.484;2023-07-24T03:48:36;99516.16;;;21.04;63.21
12949;BME280;6539;49.476;8.484;2023-07-24T03:51:24;99509.03;;;21.03;63.09
12949;BME280;6539;49.476;8.484;2023-07-24T03:54:10;99506.53;;;21.05;62.82
12949;BME280;6539;49.476;8.484;2023-07-24T03:56:56;99505.28;;;21.06;62.91
12949;BME280;6539;49.476;8.484;2023-07-24T03:59:42;99496.38;;;21.08;62.72
12949;BME280;6539;49.476;8.484;2023-07-24T04:02:30;99501.47;;;21.09;62.57
12949;BME280;6539;49.476;8.484;2023-07-24T04:05:19;99487.56;;;21.15;62.12
12949;BME280;6539;49.476;8.484;2023-07-24T04:08:05;99486.78;;;21.14;62.22
12949;BME280;6539;49.476;8.484;2023-07-24T04:10:51;99483.28;;;21.19;62.04
12949;BME280;6539;49.476;8.484;2023-07-24T04:13:37;99494.72;;;21.27;61.69
12949;BME280;6539;49.476;8.484;2023-07-24T04:16:26;99503.59;;;21.25;61.73
12949;BME280;6539;49.476;8.484;2023-07-24T04:19:12;99497.75;;;21.23;61.71
12949;BME280;6539;49.476;8.484;2023-07-24T04:22:02;99509.19;;;21.25;61.53
12949;BME280;6539;49.476;8.484;2023-07-24T04:24:53;99499.78;;;21.23;61.56
12949;BME280;6539;49.476;8.484;2023-07-24T04:27:39;99492.88;;;21.18;61.80
12949;BME280;6539;49.476;8.484;2023-07-24T04:30:25;99490.38;;;21.20;61.35
12949;BME280;6539;49.476;8.484;2023-07-24T04:33:11;99486.59;;;21.23;61.18
12949;BME280;6539;49.476;8.484;2023-07-24T04:35:57;99498.28;;;21.27;61.01
12949;BME280;6539;49.476;8.484;2023-07-24T04:38:43;99497.03;;;21.34;60.50
12949;BME280;6539;49.476;8.484;2023-07-24T04:41:32;99493.72;;;21.36;60.56
12949;BME280;6539;49.476;8.484;2023-07-24T04:44:18;99488.66;;;21.34;60.49
12949;BME280;6539;49.476;8.484;2023-07-24T04:47:06;99483.09;;;21.40;60.03
12949;BME280;6539;49.476;8.484;2023-07-24T04:49:55;99482.59;;;21.41;59.82
12949;BME280;6539;49.476;8.484;2023-07-24T04:52:41;99491.97;;;21.38;59.98
12949;BME280;6539;49.476;8.484;2023-07-24T04:55:27;99500.34;;;21.38;60.00
12949;BME280;6539;49.476;8.484;2023-07-24T04:58:13;99502.13;;;21.36;60.11
12949;BME280;6539;49.476;8.484;2023-07-24T05:01:05;99499.59;;;21.38;60.33
12949;BME280;6539;49.476;8.484;2023-07-24T05:03:51;99500.66;;;21.46;60.78
12949;BME280;6539;49.476;8.484;2023-07-24T05:06:40;99494.78;;;21.44;61.51
12949;BME280;6539;49.476;8.484;2023-07-24T05:09:28;99484.38;;;21.39;61.63
12949;BME280;6539;49.476;8.484;2023-07-24T05:12:14;99484.13;;;21.42;61.76
12949;BME280;6539;49.476;8.484;2023-07-24T05:15:00;99482.34;;;21.45;61.29
12949;BME280;6539;49.476;8.484;2023-07-24T05:17:46;99474.97;;;21.42;61.13
12949;BME280;6539;49.476;8.484;2023-07-24T05:20:32;99473.19;;;21.39;61.77
12949;BME280;6539;49.476;8.484;2023-07-24T05:23:21;99473.69;;;21.37;61.63
12949;BME280;6539;49.476;8.484;2023-07-24T05:26:10;99482.03;;;21.32;61.73
12949;BME280;6539;49.476;8.484;2023-07-24T05:28:56;99488.91;;;21.31;61.70
12949;BME280;6539;49.476;8.484;2023-07-24T05:31:42;99496.25;;;21.34;61.60
12949;BME280;6539;49.476;8.484;2023-07-24T05:34:28;99497.81;;;21.40;61.34
12949;BME280;6539;49.476;8.484;2023-07-24T05:37:14;99496.78;;;21.38;61.48
12949;BME280;6539;49.476;8.484;2023-07-24T05:40:00;99498.06;;;21.37;61.73
12949;BME280;6539;49.476;8.484;2023-07-24T05:42:46;99496.56;;;21.41;61.64
12949;BME280;6539;49.476;8.484;2023-07-24T05:45:33;99495.75;;;21.30;62.21
12949;BME280;6539;49.476;8.484;2023-07-24T05:48:22;99495.47;;;21.27;62.43
12949;BME280;6539;49.476;8.484;2023-07-24T05:51:10;99486.84;;;21.25;62.74
12949;BME280;6539;49.476;8.484;2023-07-24T05:53:59;99499.78;;;21.23;63.03
12949;BME280;6539;49.476;8.484;2023-07-24T05:56:45;99511.97;;;21.25;63.00
12949;BME280;6539;49.476;8.484;2023-07-24T05:59:33;99509.94;;;21.26;63.19
12949;BME280;6539;49.476;8.484;2023-07-24T06:02:19;99514.31;;;21.33;63.35
12949;BME280;6539;49.476;8.484;2023-07-24T06:05:05;99513.28;;;21.36;63.51
12949;BME280;6539;49.476;8.484;2023-07-24T06:07:51;99526.22;;;21.33;63.75
12949;BME280;6539;49.476;8.484;2023-07-24T06:10:37;99516.06;;;21.36;64.00
12949;BME280;6539;49.476;8.484;2023-07-24T06:13:26;99512.75;;;21.32;64.06
12949;BME280;6539;49.476;8.484;2023-07-24T06:16:12;99509.19;;;21.25;64.31
12949;BME280;6539;49.476;8.484;2023-07-24T06:18:59;99510.94;;;21.28;64.34
12949;BME280;6539;49.476;8.484;2023-07-24T06:21:45;99513.75;;;21.28;64.47
12949;BME280;6539;49.476;8.484;2023-07-24T06:24:32;99521.13;;;21.32;64.56
12949;BME280;6539;49.476;8.484;2023-07-24T06:27:20;99516.31;;;21.32;64.62
12949;BME280;6539;49.476;8.484;2023-07-24T06:30:07;99523.16;;;21.31;64.95
12949;BME280;6539;49.476;8.484;2023-07-24T06:32:53;99511.53;;;21.38;64.75
12949;BME280;6539;49.476;8.484;2023-07-24T06:35:41;99514.88;;;21.48;64.34
12949;BME280;6539;49.476;8.484;2023-07-24T06:38:27;99514.84;;;21.42;65.02
12949;BME280;6539;49.476;8.484;2023-07-24T06:41:18;99521.91;;;21.38;65.29
12949;BME280;6539;49.476;8.484;2023-07-24T06:44:08;99523.47;;;21.39;65.39
12949;BME280;6539;49.476;8.484;2023-07-24T06:46:57;99515.56;;;21.37;65.77
12949;BME280;6539;49.476;8.484;2023-07-24T06:49:45;99506.75;;;21.50;65.17
12949;BME280;6539;49.476;8.484;2023-07-24T06:52:34;99521.00;;;21.52;65.29
12949;BME280;6539;49.476;8.484;2023-07-24T06:55:20;99515.41;;;21.52;65.38
12949;BME280;6539;49.476;8.484;2023-07-24T06:58:06;99509.09;;;21.62;65.26
12949;BME280;6539;49.476;8.484;2023-07-24T07:00:52;99510.13;;;21.70;64.86
12949;BME280;6539;49.476;8.484;2023-07-24T07:03:38;99501.78;;;21.76;64.84
12949;BME280;6539;49.476;8.484;2023-07-24T07:06:24;99502.28;;;21.80;64.87
12949;BME280;6539;49.476;8.484;2023-07-24T07:09:10;99494.41;;;21.78;65.11
12949;BME280;6539;49.476;8.484;2023-07-24T07:11:59;99485.03;;;21.87;64.68
12949;BME280;6539;49.476;8.484;2023-07-24T07:14:47;99482.56;;;22.11;63.96
12949;BME280;6539;49.476;8.484;2023-07-24T07:17:33;99491.19;;;22.13;64.07
12949;BME280;6539;49.476;8.484;2023-07-24T07:20:19;99510.53;;;22.22;63.68
12949;BME280;6539;49.476;8.484;2023-07-24T07:23:05;99488.66;;;22.15;64.16
12949;BME280;6539;49.476;8.484;2023-07-24T07:25:52;99488.69;;;22.26;64.11
12949;BME280;6539;49.476;8.484;2023-07-24T07:28:40;99486.41;;;22.36;63.95
12949;BME280;6539;49.476;8.484;2023-07-24T07:31:30;99499.59;;;22.41;63.68
12949;BME280;6539;49.476;8.484;2023-07-24T07:34:16;99500.69;;;22.60;62.92
12949;BME280;6539;49.476;8.484;2023-07-24T07:37:02;99507.53;;;22.64;63.25
12949;BME280;6539;49.476;8.484;2023-07-24T07:39:48;99517.47;;;22.65;62.98
12949;BME280;6539;49.476;8.484;2023-07-24T07:42:34;99517.69;;;22.73;63.33
12949;BME280;6539;49.476;8.484;2023-07-24T07:45:24;99515.69;;;22.79;63.04
12949;BME280;6539;49.476;8.484;2023-07-24T07:48:10;99514.66;;;22.88;62.96
12949;BME280;6539;49.476;8.484;2023-07-24T07:50:56;99502.41;;;22.91;63.09
12949;BME280;6539;49.476;8.484;2023-07-24T07:53:42;99509.78;;;22.99;62.75
12949;BME280;6539;49.476;8.484;2023-07-24T07:56:30;99511.31;;;23.00;62.67
12949;BME280;6539;49.476;8.484;2023-07-24T07:59:16;99516.41;;;22.96;63.09
12949;BME280;6539;49.476;8.484;2023-07-24T08:02:02;99518.72;;;22.92;63.23
12949;BME280;6539;49.476;8.484;2023-07-24T08:04:48;99511.84;;;22.99;63.14
12949;BME280;6539;49.476;8.484;2023-07-24T08:07:35;99509.03;;;22.99;63.12
12949;BME280;6539;49.476;8.484;2023-07-24T08:10:21;99509.28;;;23.01;62.93
12949;BME280;6539;49.476;8.484;2023-07-24T08:13:09;99513.09;;;22.98;63.15
12949;BME280;6539;49.476;8.484;2023-07-24T08:16:00;99505.44;;;23.04;63.12
12949;BME280;6539;49.476;8.484;2023-07-24T08:18:49;99494.50;;;23.06;62.87
12949;BME280;6539;49.476;8.484;2023-07-24T08:21:40;99493.44;;;23.14;62.60
12949;BME280;6539;49.476;8.484;2023-07-24T08:24:29;99488.84;;;23.22;62.16
12949;BME280;6539;49.476;8.484;2023-07-24T08:27:17;99477.88;;;23.30;62.13
12949;BME280;6539;49.476;8.484;2023-07-24T08:30:04;99475.56;;;23.45;61.56
12949;BME280;6539;49.476;8.484;2023-07-24T08:32:50;99459.47;;;23.51;61.30
12949;BME280;6539;49.476;8.484;2023-07-24T08:35:37;99454.09;;;23.59;60.96
12949;BME280;6539;49.476;8.484;2023-07-24T08:38:23;99463.44;;;23.72;60.27
12949;BME280;6539;49.476;8.484;2023-07-24T08:41:13;99465.50;;;23.66;60.25
12949;BME280;6539;49.476;8.484;2023-07-24T08:43:59;99474.16;;;23.68;60.23
12949;BME280;6539;49.476;8.484;2023-07-24T08:46:47;99470.56;;;23.73;60.15
12949;BME280;6539;49.476;8.484;2023-07-24T08:49:36;99476.13;;;23.84;59.35
12949;BME280;6539;49.476;8.484;2023-07-24T08:52:23;99476.38;;;23.86;59.69
12949;BME280;6539;49.476;8.484;2023-07-24T08:55:09;99476.31;;;23.92;59.88
12949;BME280;6539;49.476;8.484;2023-07-24T08:57:58;99476.59;;;23.88;60.00
12949;BME280;6539;49.476;8.484;2023-07-24T09:00:44;99482.50;;;23.85;60.46
12949;BME280;6539;49.476;8.484;2023-07-24T09:03:34;99475.06;;;23.87;59.61
12949;BME280;6539;49.476;8.484;2023-07-24T09:06:21;99478.13;;;23.89;60.29
12949;BME280;6539;49.476;8.484;2023-07-24T09:09:14;99463.84;;;23.93;60.25
12949;BME280;6539;49.476;8.484;2023-07-24T09:12:00;99453.34;;;23.99;60.13
12949;BME280;6539;49.476;8.484;2023-07-24T09:14:59;99449.25;;;24.05;60.06
12949;BME280;6539;49.476;8.484;2023-07-24T09:17:53;99436.16;;;24.13;59.69
12949;BME280;6539;49.476;8.484;2023-07-24T09:20:42;99411.13;;;24.21;59.75
12949;BME280;6539;49.476;8.484;2023-07-24T09:23:31;99409.50;;;24.31;59.18
12949;BME280;6539;49.476;8.484;2023-07-24T09:26:17;99403.31;;;24.38;58.60
12949;BME280;6539;49.476;8.484;2023-07-24T09:29:03;99408.75;;;24.31;58.71
12949;BME280;6539;49.476;8.484;2023-07-24T09:31:51;99416.13;;;24.34;58.92
12949;BME280;6539;49.476;8.484;2023-07-24T09:34:42;99414.72;;;24.21;59.26
12949;BME280;6539;49.476;8.484;2023-07-24T09:37:34;99421.66;;;24.09;59.92
12949;BME280;6539;49.476;8.484;2023-07-24T09:40:22;99439.38;;;23.93;60.45
12949;BME280;6539;49.476;8.484;2023-07-24T09:43:20;99441.41;;;23.93;61.01
12949;BME280;6539;49.476;8.484;2023-07-24T09:46:08;99431.03;;;23.82;61.66
12949;BME280;6539;49.476;8.484;2023-07-24T09:48:56;99424.41;;;23.80;62.13
12949;BME280;6539;49.476;8.484;2023-07-24T09:51:47;99437.72;;;23.74;62.60
12949;BME280;6539;49.476;8.484;2023-07-24T09:54:48;99434.41;;;23.70;62.93
12949;BME280;6539;49.476;8.484;2023-07-24T09:57:35;99429.00;;;23.77;62.72
12949;BME280;6539;49.476;8.484;2023-07-24T10:00:22;99436.81;;;23.95;62.20
12949;BME280;6539;49.476;8.484;2023-07-24T10:03:09;99424.81;;;23.95;62.14
12949;BME280;6539;49.476;8.484;2023-07-24T10:05:56;99421.47;;;23.96;62.35
12949;BME280;6539;49.476;8.484;2023-07-24T10:08:43;99436.56;;;23.93;62.46
12949;BME280;6539;49.476;8.484;2023-07-24T10:11:32;99448.63;;;23.77;62.76
12949;BME280;6539;49.476;8.484;2023-07-24T10:14:18;99433.41;;;23.67;63.47
12949;BME280;6539;49.476;8.484;2023-07-24T10:17:05;99444.63;;;23.67;63.78
12949;BME280;6539;49.476;8.484;2023-07-24T10:20:04;99436.75;;;23.66;64.03
12949;BME280;6539;49.476;8.484;2023-07-24T10:23:00;99440.31;;;23.61;64.30
12949;BME280;6539;49.476;8.484;2023-07-24T10:25:50;99446.47;;;23.54;64.69
12949;BME280;6539;49.476;8.484;2023-07-24T10:28:40;99440.34;;;23.55;64.94
12949;BME280;6539;49.476;8.484;2023-07-24T10:31:28;99441.28;;;23.69;64.52
12949;BME280;6539;49.476;8.484;2023-07-24T10:34:15;99445.88;;;23.72;64.16
12949;BME280;6539;49.476;8.484;2023-07-24T10:37:09;99433.91;;;23.71;64.32
12949;BME280;6539;49.476;8.484;2023-07-24T10:39:55;99434.03;;;23.90;63.62
12949;BME280;6539;49.476;8.484;2023-07-24T10:42:41;99439.91;;;23.86;63.78
12949;BME280;6539;49.476;8.484;2023-07-24T10:45:58;99439.06;;;23.97;63.53
12949;BME280;6539;49.476;8.484;2023-07-24T10:48:50;99427.34;;;23.98;63.47
12949;BME280;6539;49.476;8.484;2023-07-24T10:51:37;99431.16;;;24.06;63.39
12949;BME280;6539;49.476;8.484;2023-07-24T10:54:23;99435.44;;;24.13;63.18
12949;BME280;6539;49.476;8.484;2023-07-24T10:57:09;99439.28;;;24.10;63.32
12949;BME280;6539;49.476;8.484;2023-07-24T10:59:59;99442.03;;;24.15;63.29
12949;BME280;6539;49.476;8.484;2023-07-24T11:02:45;99436.66;;;24.17;63.27
12949;BME280;6539;49.476;8.484;2023-07-24T11:05:33;99434.59;;;24.23;63.12
12949;BME280;6539;49.476;8.484;2023-07-24T11:08:20;99432.97;;;24.34;62.39
12949;BME280;6539;49.476;8.484;2023-07-24T11:11:11;99422.78;;;24.31;61.60
12949;BME280;6539;49.476;8.484;2023-07-24T11:13:58;99416.13;;;24.34;61.50
12949;BME280;6539;49.476;8.484;2023-07-24T11:16:50;99425.47;;;24.42;61.45
12949;BME280;6539;49.476;8.484;2023-07-24T11:19:36;99445.81;;;24.48;61.26
12949;BME280;6539;49.476;8.484;2023-07-24T11:22:24;99426.09;;;24.59;61.15
12949;BME280;6539;49.476;8.484;2023-07-24T11:25:15;99422.13;;;24.73;58.95
12949;BME280;6539;49.476;8.484;2023-07-24T11:28:09;99419.09;;;24.71;58.19
12949;BME280;6539;49.476;8.484;2023-07-24T11:31:02;99415.34;;;24.87;58.53
12949;BME280;6539;49.476;8.484;2023-07-24T11:33:54;99420.75;;;24.85;59.13
12949;BME280;6539;49.476;8.484;2023-07-24T11:36:43;99415.59;;;24.89;59.16
12949;BME280;6539;49.476;8.484;2023-07-24T11:39:31;99409.94;;;24.94;60.04
12949;BME280;6539;49.476;8.484;2023-07-24T11:42:17;99399.81;;;24.86;60.33
12949;BME280;6539;49.476;8.484;2023-07-24T11:45:04;99404.59;;;24.67;61.82
12949;BME280;6539;49.476;8.484;2023-07-24T11:47:53;99391.47;;;24.51;62.29
12949;BME280;6539;49.476;8.484;2023-07-24T11:50:54;99381.53;;;24.50;63.14
12949;BME280;6539;49.476;8.484;2023-07-24T11:53:45;99385.72;;;24.38;64.05
12949;BME280;6539;49.476;8.484;2023-07-24T11:56:32;99385.59;;;24.78;62.89
12949;BME280;6539;49.476;8.484;2023-07-24T11:59:20;99404.31;;;25.75;59.19
12949;BME280;6539;49.476;8.484;2023-07-24T12:02:13;99404.06;;;25.73;58.17
12949;BME280;6539;49.476;8.484;2023-07-24T12:05:04;99399.81;;;25.47;58.56
12949;BME280;6539;49.476;8.484;2023-07-24T12:07:54;99397.34;;;25.38;58.87
12949;BME280;6539;49.476;8.484;2023-07-24T12:10:42;99393.88;;;24.89;60.09
12949;BME280;6539;49.476;8.484;2023-07-24T12:13:28;99363.06;;;24.60;61.00
12949;BME280;6539;49.476;8.484;2023-07-24T12:16:17;99364.84;;;24.33;62.10
12949;BME280;6539;49.476;8.484;2023-07-24T12:19:08;99362.25;;;24.41;61.99
12949;BME280;6539;49.476;8.484;2023-07-24T12:21:54;99378.75;;;24.50;61.93
12949;BME280;6539;49.476;8.484;2023-07-24T12:24:45;99362.53;;;24.61;62.23
12949;BME280;6539;49.476;8.484;2023-07-24T12:27:34;99357.38;;;24.65;62.43
12949;BME280;6539;49.476;8.484;2023-07-24T12:30:23;99366.78;;;24.68;62.37
12949;BME280;6539;49.476;8.484;2023-07-24T12:33:14;99367.38;;;24.61;62.49
12949;BME280;6539;49.476;8.484;2023-07-24T12:36:00;99376.03;;;24.87;61.67
12949;BME280;6539;49.476;8.484;2023-07-24T12:38:50;99381.88;;;24.89;61.99
12949;BME280;6539;49.476;8.484;2023-07-24T12:41:38;99379.25;;;24.96;61.87
12949;BME280;6539;49.476;8.484;2023-07-24T12:44:24;99378.91;;;25.06;61.35
12949;BME280;6539;49.476;8.484;2023-07-24T12:47:12;99361.44;;;25.31;60.43
12949;BME280;6539;49.476;8.484;2023-07-24T12:50:00;99364.22;;;25.87;58.45
12949;BME280;6539;49.476;8.484;2023-07-24T12:52:48;99369.97;;;26.13;57.65
12949;BME280;6539;49.476;8.484;2023-07-24T12:55:34;99367.22;;;25.76;57.24
12949;BME280;6539;49.476;8.484;2023-07-24T12:58:23;99358.56;;;25.37;58.14
12949;BME280;6539;49.476;8.484;2023-07-24T13:01:09;99361.59;;;25.20;59.76
12949;BME280;6539;49.476;8.484;2023-07-24T13:03:55;99354.91;;;25.23;59.33
12949;BME280;6539;49.476;8.484;2023-07-24T13:06:41;99327.19;;;25.14;59.23
12949;BME280;6539;49.476;8.484;2023-07-24T13:09:29;99341.88;;;25.44;58.58
12949;BME280;6539;49.476;8.484;2023-07-24T13:12:18;99329.84;;;25.62;57.54
12949;BME280;6539;49.476;8.484;2023-07-24T13:15:07;99330.91;;;25.59;57.57
12949;BME280;6539;49.476;8.484;2023-07-24T13:17:53;99316.00;;;25.64;56.68
12949;BME280;6539;49.476;8.484;2023-07-24T13:20:43;99308.13;;;26.08;54.79
12949;BME280;6539;49.476;8.484;2023-07-24T13:23:32;99296.72;;;26.84;52.14
12949;BME280;6539;49.476;8.484;2023-07-24T13:26:18;99279.78;;;26.97;51.03
12949;BME280;6539;49.476;8.484;2023-07-24T13:29:04;99282.53;;;27.24;49.09
12949;BME280;6539;49.476;8.484;2023-07-24T13:31:51;99271.19;;;27.03;50.11
12949;BME280;6539;49.476;8.484;2023-07-24T13:34:40;99264.28;;;28.00;48.10
12949;BME280;6539;49.476;8.484;2023-07-24T13:37:26;99258.19;;;28.44;46.44
12949;BME280;6539;49.476;8.484;2023-07-24T13:40:12;99257.56;;;27.82;46.82
12949;BME280;6539;49.476;8.484;2023-07-24T13:42:58;99241.91;;;27.19;48.00
12949;BME280;6539;49.476;8.484;2023-07-24T13:45:44;99220.97;;;26.68;48.93
12949;BME280;6539;49.476;8.484;2023-07-24T13:48:30;99224.38;;;26.27;49.66
12949;BME280;6539;49.476;8.484;2023-07-24T13:51:19;99214.28;;;25.92;51.58
12949;BME280;6539;49.476;8.484;2023-07-24T13:54:05;99200.09;;;25.71;52.28
12949;BME280;6539;49.476;8.484;2023-07-24T13:56:51;99215.72;;;25.54;52.74
12949;BME280;6539;49.476;8.484;2023-07-24T13:59:37;99232.03;;;25.42;53.76
12949;BME280;6539;49.476;8.484;2023-07-24T14:02:33;99240.78;;;25.20;56.05
12949;BME280;6539;49.476;8.484;2023-07-24T14:05:21;99249.91;;;24.89;60.02
12949;BME280;6539;49.476;8.484;2023-07-24T14:08:07;99233.53;;;24.32;63.75
12949;BME280;6539;49.476;8.484;2023-07-24T14:10:54;99252.63;;;23.85;67.29
12949;BME280;6539;49.476;8.484;2023-07-24T14:13:40;99252.38;;;23.53;68.32
12949;BME280;6539;49.476;8.484;2023-07-24T14:16:26;99272.69;;;23.24;71.89
12949;BME280;6539;49.476;8.484;2023-07-24T14:19:12;99300.13;;;22.90;78.57
12949;BME280;6539;49.476;8.484;2023-07-24T14:21:58;99300.22;;;22.68;82.18
12949;BME280;6539;49.476;8.484;2023-07-24T14:24:44;99284.97;;;22.63;85.02
12949;BME280;6539;49.476;8.484;2023-07-24T14:27:32;99262.13;;;22.37;87.47
12949;BME280;6539;49.476;8.484;2023-07-24T14:30:18;99278.44;;;22.33;87.30
12949;BME280;6539;49.476;8.484;2023-07-24T14:33:06;99305.63;;;22.38;88.70
12949;BME280;6539;49.476;8.484;2023-07-24T14:35:55;99308.19;;;22.36;88.98
12949;BME280;6539;49.476;8.484;2023-07-24T14:38:43;99308.09;;;22.58;89.48
12949;BME280;6539;49.476;8.484;2023-07-24T14:41:29;99318.78;;;22.65;87.90
12949;BME280;6539;49.476;8.484;2023-07-24T14:44:20;99304.91;;;23.01;85.84
12949;BME280;6539;49.476;8.484;2023-07-24T14:47:06;99297.28;;;23.42;83.47
12949;BME280;6539;49.476;8.484;2023-07-24T14:49:56;99295.41;;;23.56;80.32
12949;BME280;6539;49.476;8.484;2023-07-24T14:52:44;99289.44;;;23.35;80.81
12949;BME280;6539;49.476;8.484;2023-07-24T14:55:30;99291.09;;;23.08;82.47
12949;BME280;6539;49.476;8.484;2023-07-24T14:58:16;99302.16;;;22.90;84.62
12949;BME280;6539;49.476;8.484;2023-07-24T15:01:05;99304.75;;;22.71;86.00
12949;BME280;6539;49.476;8.484;2023-07-24T15:03:51;99301.50;;;22.50;87.39
12949;BME280;6539;49.476;8.484;2023-07-24T15:06:37;99305.09;;;22.40;90.44